sensor_id;sensor_type;location;lat;lon;timestamp;temperature;humidity
5930;DHT22;2990;48.746;9.236;2022-07-05T00:02:23;18.80;1.00
5930;DHT22;2990;48.746;9.236;2022-07-05T00:04:49;18.80;1.00
5930;DHT22;2990;48.746;9.236;2022-07-05T00:07:19;18.80;1.00
5930;DHT22;2990;48.746;9.236;2022-07-05T00:09:52;18.80;1.00
5930;DHT22;2990;48.746;9.236;2022-07-05T00:12:19;18.80;1.00
5930;DHT22;2990;48.746;9.236;2022-07-05T00:14:45;18.70;1.00
5930;DHT22;2990;48.746;9.236;2022-07-05T00:17:12;18.70;1.00
5930;DHT22;2990;48.746;9.236;2022-07-05T00:19:38;18.60;1.00
5930;DHT22;2990;48.746;9.236;2022-07-05T00:22:03;18.50;1.00
5930;DHT22;2990;48.746;9.236;2022-07-05T00:24:29;18.40;1.00
5930;DHT22;2990;48.746;9.236;2022-07-05T00:26:55;18.40;1.00
5930;DHT22;2990;48.746;9.236;2022-07-05T00:29:20;18.50;1.00
5930;DHT22;2990;48.746;9.236;2022-07-05T00:31:46;18.50;1.00
5930;DHT22;2990;48.746;9.236;2022-07-05T00:34:11;18.50;1.00
5930;DHT22;2990;48.746;9.236;2022-07-05T00:36:38;18.40;1.00
5930;DHT22;2990;48.746;9.236;2022-07-05T00:39:05;18.40;1.00
5930;DHT22;2990;48.746;9.236;2022-07-05T00:41:31;18.40;1.00
5930;DHT22;2990;48.746;9.236;2022-07-05T00:44:05;18.40;1.00
5930;DHT22;2990;48.746;9.236;2022-07-05T00:46:32;18.40;1.00
5930;DHT22;2990;48.746;9.236;2022-07-05T00:48:58;18.40;1.00
5930;DHT22;2990;48.746;9.236;2022-07-05T00:51:25;18.40;1.00
5930;DHT22;2990;48.746;9.236;2022-07-05T00:53:51;18.30;1.00
5930;DHT22;2990;48.746;9.236;2022-07-05T00:56:19;18.30;1.00
5930;DHT22;2990;48.746;9.236;2022-07-05T00:58:45;18.40;1.00
5930;DHT22;2990;48.746;9.236;2022-07-05T01:01:11;18.30;1.00
5930;DHT22;2990;48.746;9.236;2022-07-05T01:03:37;18.30;1.00
5930;DHT22;2990;48.746;9.236;2022-07-05T01:06:06;18.20;1.00
5930;DHT22;2990;48.746;9.236;2022-07-05T01:08:33;18.20;1.00
5930;DHT22;2990;48.746;9.236;2022-07-05T01:11:01;18.20;1.00
5930;DHT22;2990;48.746;9.236;2022-07-05T01:13:27;18.10;1.00
5930;DHT22;2990;48.746;9.236;2022-07-05T01:15:53;18.10;1.00
5930;DHT22;2990;48.746;9.236;2022-07-05T01:18:20;18.10;1.00
5930;DHT22;2990;48.746;9.236;2022-07-05T01:20:50;18.10;1.00
5930;DHT22;2990;48.746;9.236;2022-07-05T01:23:17;18.00;1.00
5930;DHT22;2990;48.746;9.236;2022-07-05T01:25:44;18.00;1.00
5930;DHT22;2990;48.746;9.236;2022-07-05T01:28:10;18.00;1.00
5930;DHT22;2990;48.746;9.236;2022-07-05T01:30:36;17.90;1.00
5930;DHT22;2990;48.746;9.236;2022-07-05T01:33:04;17.80;1.00
5930;DHT22;2990;48.746;9.236;2022-07-05T01:35:30;17.80;1.00
5930;DHT22;2990;48.746;9.236;2022-07-05T01:37:56;17.80;1.00
5930;DHT22;2990;48.746;9.236;2022-07-05T01:40:21;17.70;1.00
5930;DHT22;2990;48.746;9.236;2022-07-05T01:42:47;17.70;1.00
5930;DHT22;2990;48.746;9.236;2022-07-05T01:45:13;17.70;1.00
5930;DHT22;2990;48.746;9.236;2022-07-05T01:47:59;17.70;13.30
5930;DHT22;2990;48.746;9.236;2022-07-05T01:50:28;17.60;34.90
5930;DHT22;2990;48.746;9.236;2022-07-05T01:52:56;17.60;92.30
5930;DHT22;2990;48.746;9.236;2022-07-05T01:55:23;17.60;99.90
5930;DHT22;2990;48.746;9.236;2022-07-05T01:57:49;17.60;99.90
5930;DHT22;2990;48.746;9.236;2022-07-05T02:00:15;17.50;99.90
5930;DHT22;2990;48.746;9.236;2022-07-05T02:02:41;17.50;99.90
5930;DHT22;2990;48.746;9.236;2022-07-05T02:05:07;17.40;99.90
5930;DHT22;2990;48.746;9.236;2022-07-05T02:07:33;17.40;1.00
5930;DHT22;2990;48.746;9.236;2022-07-05T02:09:58;17.40;1.00
5930;DHT22;2990;48.746;9.236;2022-07-05T02:12:24;17.40;1.00
5930;DHT22;2990;48.746;9.236;2022-07-05T02:14:49;17.30;1.00
5930;DHT22;2990;48.746;9.236;2022-07-05T02:17:15;17.20;99.90
5930;DHT22;2990;48.746;9.236;2022-07-05T02:19:40;17.10;99.90
5930;DHT22;2990;48.746;9.236;2022-07-05T02:22:06;17.20;99.90
5930;DHT22;2990;48.746;9.236;2022-07-05T02:24:33;17.10;99.90
5930;DHT22;2990;48.746;9.236;2022-07-05T02:26:58;17.10;99.90
5930;DHT22;2990;48.746;9.236;2022-07-05T02:29:24;17.10;99.90
5930;DHT22;2990;48.746;9.236;2022-07-05T02:31:50;17.00;1.00
5930;DHT22;2990;48.746;9.236;2022-07-05T02:34:15;17.00;1.00
5930;DHT22;2990;48.746;9.236;2022-07-05T02:36:41;17.00;99.90
5930;DHT22;2990;48.746;9.236;2022-07-05T02:39:07;17.00;99.90
5930;DHT22;2990;48.746;9.236;2022-07-05T02:41:32;16.90;1.00
5930;DHT22;2990;48.746;9.236;2022-07-05T02:43:58;16.90;1.00
5930;DHT22;2990;48.746;9.236;2022-07-05T02:46:23;16.80;99.90
5930;DHT22;2990;48.746;9.236;2022-07-05T02:48:50;16.80;1.00
5930;DHT22;2990;48.746;9.236;2022-07-05T02:51:16;16.80;99.90
5930;DHT22;2990;48.746;9.236;2022-07-05T02:53:42;16.70;99.90
5930;DHT22;2990;48.746;9.236;2022-07-05T02:56:07;16.70;99.90
5930;DHT22;2990;48.746;9.236;2022-07-05T02:58:33;16.70;1.00
5930;DHT22;2990;48.746;9.236;2022-07-05T03:00:58;16.70;99.90
5930;DHT22;2990;48.746;9.236;2022-07-05T03:03:24;16.70;99.90
5930;DHT22;2990;48.746;9.236;2022-07-05T03:05:53;16.60;99.90
5930;DHT22;2990;48.746;9.236;2022-07-05T03:08:18;16.60;99.90
5930;DHT22;2990;48.746;9.236;2022-07-05T03:10:44;16.60;1.00
5930;DHT22;2990;48.746;9.236;2022-07-05T03:13:10;16.50;1.00
5930;DHT22;2990;48.746;9.236;2022-07-05T03:15:35;16.50;1.00
5930;DHT22;2990;48.746;9.236;2022-07-05T03:18:01;16.50;1.00
5930;DHT22;2990;48.746;9.236;2022-07-05T03:20:27;16.40;1.00
5930;DHT22;2990;48.746;9.236;2022-07-05T03:22:52;16.40;1.00
5930;DHT22;2990;48.746;9.236;2022-07-05T03:25:18;16.40;1.00
5930;DHT22;2990;48.746;9.236;2022-07-05T03:27:43;16.40;99.90
5930;DHT22;2990;48.746;9.236;2022-07-05T03:30:09;16.30;99.90
5930;DHT22;2990;48.746;9.236;2022-07-05T03:32:35;16.30;1.00
5930;DHT22;2990;48.746;9.236;2022-07-05T03:35:01;16.30;21.90
5930;DHT22;2990;48.746;9.236;2022-07-05T03:37:26;16.30;1.00
5930;DHT22;2990;48.746;9.236;2022-07-05T03:39:52;16.30;1.00
5930;DHT22;2990;48.746;9.236;2022-07-05T03:42:17;16.20;1.00
5930;DHT22;2990;48.746;9.236;2022-07-05T03:44:43;16.30;99.90
5930;DHT22;2990;48.746;9.236;2022-07-05T03:47:08;16.30;99.90
5930;DHT22;2990;48.746;9.236;2022-07-05T03:49:34;16.30;1.00
5930;DHT22;2990;48.746;9.236;2022-07-05T03:51:59;16.30;1.00
5930;DHT22;2990;48.746;9.236;2022-07-05T03:54:25;16.30;99.90
5930;DHT22;2990;48.746;9.236;2022-07-05T03:56:50;16.30;1.00
5930;DHT22;2990;48.746;9.236;2022-07-05T03:59:16;16.20;99.90
5930;DHT22;2990;48.746;9.236;2022-07-05T04:01:41;16.30;53.30
5930;DHT22;2990;48.746;9.236;2022-07-05T04:04:07;16.30;1.00
5930;DHT22;2990;48.746;9.236;2022-07-05T04:06:33;16.20;99.90
5930;DHT22;2990;48.746;9.236;2022-07-05T04:08:59;16.20;99.90
5930;DHT22;2990;48.746;9.236;2022-07-05T04:11:24;16.30;99.90
5930;DHT22;2990;48.746;9.236;2022-07-05T04:13:50;16.30;99.90
5930;DHT22;2990;48.746;9.236;2022-07-05T04:16:16;16.30;99.90
5930;DHT22;2990;48.746;9.236;2022-07-05T04:18:41;16.30;99.90
5930;DHT22;2990;48.746;9.236;2022-07-05T04:21:07;16.30;1.00
5930;DHT22;2990;48.746;9.236;2022-07-05T04:23:32;16.30;1.00
5930;DHT22;2990;48.746;9.236;2022-07-05T04:25:59;16.30;1.00
5930;DHT22;2990;48.746;9.236;2022-07-05T04:28:25;16.40;1.00
5930;DHT22;2990;48.746;9.236;2022-07-05T04:30:51;16.50;1.00
5930;DHT22;2990;48.746;9.236;2022-07-05T04:33:16;16.50;1.00
5930;DHT22;2990;48.746;9.236;2022-07-05T04:35:42;16.60;99.90
5930;DHT22;2990;48.746;9.236;2022-07-05T04:38:07;16.70;1.00
5930;DHT22;2990;48.746;9.236;2022-07-05T04:40:33;16.80;99.90
5930;DHT22;2990;48.746;9.236;2022-07-05T04:42:58;16.90;1.00
5930;DHT22;2990;48.746;9.236;2022-07-05T04:45:24;17.00;1.00
5930;DHT22;2990;48.746;9.236;2022-07-05T04:47:49;17.10;99.90
5930;DHT22;2990;48.746;9.236;2022-07-05T04:50:15;17.10;99.90
5930;DHT22;2990;48.746;9.236;2022-07-05T04:52:40;17.20;99.90
5930;DHT22;2990;48.746;9.236;2022-07-05T04:55:06;17.30;1.00
5930;DHT22;2990;48.746;9.236;2022-07-05T04:57:38;17.40;1.00
5930;DHT22;2990;48.746;9.236;2022-07-05T05:00:05;17.50;1.00
5930;DHT22;2990;48.746;9.236;2022-07-05T05:02:31;17.60;99.90
5930;DHT22;2990;48.746;9.236;2022-07-05T05:04:57;17.60;99.90
5930;DHT22;2990;48.746;9.236;2022-07-05T05:07:22;17.80;1.00
5930;DHT22;2990;48.746;9.236;2022-07-05T05:09:48;17.90;99.90
5930;DHT22;2990;48.746;9.236;2022-07-05T05:12:13;18.00;99.90
5930;DHT22;2990;48.746;9.236;2022-07-05T05:14:39;18.10;99.90
5930;DHT22;2990;48.746;9.236;2022-07-05T05:17:04;18.10;99.90
5930;DHT22;2990;48.746;9.236;2022-07-05T05:19:30;18.10;99.90
5930;DHT22;2990;48.746;9.236;2022-07-05T05:21:55;18.20;99.90
5930;DHT22;2990;48.746;9.236;2022-07-05T05:24:21;18.40;99.90
5930;DHT22;2990;48.746;9.236;2022-07-05T05:26:46;18.50;99.90
5930;DHT22;2990;48.746;9.236;2022-07-05T05:29:12;18.50;99.90
5930;DHT22;2990;48.746;9.236;2022-07-05T05:31:38;18.60;99.90
5930;DHT22;2990;48.746;9.236;2022-07-05T05:34:03;18.60;99.90
5930;DHT22;2990;48.746;9.236;2022-07-05T05:36:29;18.60;76.70
5930;DHT22;2990;48.746;9.236;2022-07-05T05:38:54;18.60;92.70
5930;DHT22;2990;48.746;9.236;2022-07-05T05:41:20;18.60;98.90
5930;DHT22;2990;48.746;9.236;2022-07-05T05:43:46;18.60;69.30
5930;DHT22;2990;48.746;9.236;2022-07-05T05:46:11;18.60;99.90
5930;DHT22;2990;48.746;9.236;2022-07-05T05:48:37;18.80;99.90
5930;DHT22;2990;48.746;9.236;2022-07-05T05:51:02;18.80;69.20
5930;DHT22;2990;48.746;9.236;2022-07-05T05:53:28;18.90;59.00
5930;DHT22;2990;48.746;9.236;2022-07-05T05:55:53;19.00;53.70
5930;DHT22;2990;48.746;9.236;2022-07-05T05:58:21;19.00;45.60
5930;DHT22;2990;48.746;9.236;2022-07-05T06:00:47;19.20;54.90
5930;DHT22;2990;48.746;9.236;2022-07-05T06:03:15;19.20;53.90
5930;DHT22;2990;48.746;9.236;2022-07-05T06:05:40;19.30;54.50
5930;DHT22;2990;48.746;9.236;2022-07-05T06:08:06;19.40;50.00
5930;DHT22;2990;48.746;9.236;2022-07-05T06:10:33;19.50;37.40
5930;DHT22;2990;48.746;9.236;2022-07-05T06:13:03;19.50;48.80
5930;DHT22;2990;48.746;9.236;2022-07-05T06:15:29;19.50;19.70
5930;DHT22;2990;48.746;9.236;2022-07-05T06:17:55;19.60;12.60
5930;DHT22;2990;48.746;9.236;2022-07-05T06:20:23;19.70;35.80
5930;DHT22;2990;48.746;9.236;2022-07-05T06:22:49;19.80;18.80
5930;DHT22;2990;48.746;9.236;2022-07-05T06:25:15;20.00;9.80
5930;DHT22;2990;48.746;9.236;2022-07-05T06:27:47;20.10;6.90
5930;DHT22;2990;48.746;9.236;2022-07-05T06:30:15;20.10;7.50
5930;DHT22;2990;48.746;9.236;2022-07-05T06:32:43;20.20;8.80
5930;DHT22;2990;48.746;9.236;2022-07-05T06:35:09;20.40;5.80
5930;DHT22;2990;48.746;9.236;2022-07-05T06:37:49;20.50;1.00
5930;DHT22;2990;48.746;9.236;2022-07-05T06:42:46;21.00;1.00
5930;DHT22;2990;48.746;9.236;2022-07-05T06:45:12;21.10;1.00
5930;DHT22;2990;48.746;9.236;2022-07-05T06:47:37;21.10;1.00
5930;DHT22;2990;48.746;9.236;2022-07-05T06:50:04;20.90;1.00
5930;DHT22;2990;48.746;9.236;2022-07-05T06:52:31;20.90;1.00
5930;DHT22;2990;48.746;9.236;2022-07-05T06:55:00;21.00;1.00
5930;DHT22;2990;48.746;9.236;2022-07-05T06:57:26;21.10;1.00
5930;DHT22;2990;48.746;9.236;2022-07-05T06:59:52;21.10;1.00
5930;DHT22;2990;48.746;9.236;2022-07-05T07:02:18;21.30;1.00
5930;DHT22;2990;48.746;9.236;2022-07-05T07:04:45;21.40;1.00
5930;DHT22;2990;48.746;9.236;2022-07-05T07:07:11;21.40;1.00
5930;DHT22;2990;48.746;9.236;2022-07-05T07:10:02;21.50;1.00
5930;DHT22;2990;48.746;9.236;2022-07-05T07:12:28;21.70;1.00
5930;DHT22;2990;48.746;9.236;2022-07-05T07:14:55;21.80;1.00
5930;DHT22;2990;48.746;9.236;2022-07-05T07:17:21;21.90;1.00
5930;DHT22;2990;48.746;9.236;2022-07-05T07:19:46;22.00;1.00
5930;DHT22;2990;48.746;9.236;2022-07-05T07:22:12;22.20;1.00
5930;DHT22;2990;48.746;9.236;2022-07-05T07:24:37;22.30;1.00
5930;DHT22;2990;48.746;9.236;2022-07-05T07:27:03;22.40;1.00
5930;DHT22;2990;48.746;9.236;2022-07-05T07:29:34;22.60;1.00
5930;DHT22;2990;48.746;9.236;2022-07-05T07:32:01;22.50;1.00
5930;DHT22;2990;48.746;9.236;2022-07-05T07:34:28;22.30;1.00
5930;DHT22;2990;48.746;9.236;2022-07-05T07:36:55;22.30;1.00
5930;DHT22;2990;48.746;9.236;2022-07-05T07:39:21;22.50;1.00
5930;DHT22;2990;48.746;9.236;2022-07-05T07:41:47;22.60;1.00
5930;DHT22;2990;48.746;9.236;2022-07-05T07:44:12;22.60;1.00
5930;DHT22;2990;48.746;9.236;2022-07-05T07:46:38;22.80;1.00
5930;DHT22;2990;48.746;9.236;2022-07-05T07:49:07;22.80;1.00
5930;DHT22;2990;48.746;9.236;2022-07-05T07:51:33;22.70;1.00
5930;DHT22;2990;48.746;9.236;2022-07-05T07:53:59;22.60;1.00
5930;DHT22;2990;48.746;9.236;2022-07-05T07:56:25;22.70;1.00
5930;DHT22;2990;48.746;9.236;2022-07-05T07:58:51;23.10;1.00
5930;DHT22;2990;48.746;9.236;2022-07-05T08:01:17;23.30;1.00
5930;DHT22;2990;48.746;9.236;2022-07-05T08:03:43;23.50;1.00
5930;DHT22;2990;48.746;9.236;2022-07-05T08:06:10;23.80;1.00
5930;DHT22;2990;48.746;9.236;2022-07-05T08:08:40;23.90;1.00
5930;DHT22;2990;48.746;9.236;2022-07-05T08:11:08;24.00;1.00
5930;DHT22;2990;48.746;9.236;2022-07-05T08:13:34;24.00;1.00
5930;DHT22;2990;48.746;9.236;2022-07-05T08:16:00;24.10;1.00
5930;DHT22;2990;48.746;9.236;2022-07-05T08:18:25;23.90;1.00
5930;DHT22;2990;48.746;9.236;2022-07-05T08:21:10;23.80;1.00
5930;DHT22;2990;48.746;9.236;2022-07-05T08:23:54;24.00;1.00
5930;DHT22;2990;48.746;9.236;2022-07-05T08:26:20;23.90;1.00
5930;DHT22;2990;48.746;9.236;2022-07-05T08:28:46;24.00;1.00
5930;DHT22;2990;48.746;9.236;2022-07-05T08:31:11;24.00;1.00
5930;DHT22;2990;48.746;9.236;2022-07-05T08:33:37;24.00;1.00
5930;DHT22;2990;48.746;9.236;2022-07-05T08:36:03;24.00;1.00
5930;DHT22;2990;48.746;9.236;2022-07-05T08:38:29;24.20;1.00
5930;DHT22;2990;48.746;9.236;2022-07-05T08:40:55;24.20;1.00
5930;DHT22;2990;48.746;9.236;2022-07-05T08:43:26;24.10;1.00
5930;DHT22;2990;48.746;9.236;2022-07-05T08:45:53;24.00;1.00
5930;DHT22;2990;48.746;9.236;2022-07-05T08:48:21;24.00;1.00
5930;DHT22;2990;48.746;9.236;2022-07-05T08:50:47;24.10;1.00
5930;DHT22;2990;48.746;9.236;2022-07-05T08:53:16;24.40;1.00
5930;DHT22;2990;48.746;9.236;2022-07-05T08:55:43;24.70;1.00
5930;DHT22;2990;48.746;9.236;2022-07-05T08:58:08;24.90;1.00
5930;DHT22;2990;48.746;9.236;2022-07-05T09:00:36;25.20;1.00
5930;DHT22;2990;48.746;9.236;2022-07-05T09:03:02;25.60;1.00
5930;DHT22;2990;48.746;9.236;2022-07-05T09:05:28;25.80;1.00
5930;DHT22;2990;48.746;9.236;2022-07-05T09:30:37;26.00;1.00
5930;DHT22;2990;48.746;9.236;2022-07-05T09:33:10;26.10;1.00
5930;DHT22;2990;48.746;9.236;2022-07-05T09:35:38;26.20;1.00
5930;DHT22;2990;48.746;9.236;2022-07-05T09:38:05;26.20;1.00
5930;DHT22;2990;48.746;9.236;2022-07-05T09:40:33;26.30;1.00
5930;DHT22;2990;48.746;9.236;2022-07-05T09:43:11;26.30;1.00
5930;DHT22;2990;48.746;9.236;2022-07-05T09:45:37;26.30;1.00
5930;DHT22;2990;48.746;9.236;2022-07-05T09:48:06;26.30;1.00
5930;DHT22;2990;48.746;9.236;2022-07-05T09:50:35;26.50;1.00
5930;DHT22;2990;48.746;9.236;2022-07-05T09:53:02;26.60;1.00
5930;DHT22;2990;48.746;9.236;2022-07-05T09:55:27;26.70;1.00
5930;DHT22;2990;48.746;9.236;2022-07-05T09:57:53;26.90;1.00
5930;DHT22;2990;48.746;9.236;2022-07-05T10:00:21;27.00;1.00
5930;DHT22;2990;48.746;9.236;2022-07-05T10:02:49;26.90;1.00
5930;DHT22;2990;48.746;9.236;2022-07-05T10:05:17;27.00;1.00
5930;DHT22;2990;48.746;9.236;2022-07-05T10:07:51;27.30;1.00
5930;DHT22;2990;48.746;9.236;2022-07-05T10:10:21;27.30;1.00
5930;DHT22;2990;48.746;9.236;2022-07-05T10:12:50;27.30;1.00
5930;DHT22;2990;48.746;9.236;2022-07-05T10:15:19;27.60;1.00
5930;DHT22;2990;48.746;9.236;2022-07-05T10:17:52;27.10;1.00
5930;DHT22;2990;48.746;9.236;2022-07-05T10:23:07;27.30;1.00
5930;DHT22;2990;48.746;9.236;2022-07-05T10:25:35;27.50;1.00
5930;DHT22;2990;48.746;9.236;2022-07-05T10:28:01;27.50;1.00
5930;DHT22;2990;48.746;9.236;2022-07-05T10:30:27;27.50;1.00
5930;DHT22;2990;48.746;9.236;2022-07-05T10:32:54;27.80;1.00
5930;DHT22;2990;48.746;9.236;2022-07-05T10:35:20;27.90;1.00
5930;DHT22;2990;48.746;9.236;2022-07-05T10:37:48;27.90;1.00
5930;DHT22;2990;48.746;9.236;2022-07-05T10:40:15;27.80;1.00
5930;DHT22;2990;48.746;9.236;2022-07-05T10:42:51;27.70;1.00
5930;DHT22;2990;48.746;9.236;2022-07-05T10:45:32;27.60;1.00
5930;DHT22;2990;48.746;9.236;2022-07-05T10:50:58;27.90;1.00
5930;DHT22;2990;48.746;9.236;2022-07-05T10:58:42;27.50;1.00
5930;DHT22;2990;48.746;9.236;2022-07-05T11:11:24;27.90;1.00
5930;DHT22;2990;48.746;9.236;2022-07-05T11:13:50;27.50;1.00
5930;DHT22;2990;48.746;9.236;2022-07-05T11:16:23;27.60;1.00
5930;DHT22;2990;48.746;9.236;2022-07-05T11:19:11;27.60;1.00
5930;DHT22;2990;48.746;9.236;2022-07-05T11:21:39;27.50;1.00
5930;DHT22;2990;48.746;9.236;2022-07-05T11:24:20;27.40;1.00
5930;DHT22;2990;48.746;9.236;2022-07-05T11:26:49;27.70;1.00
5930;DHT22;2990;48.746;9.236;2022-07-05T11:32:05;27.40;1.00
5930;DHT22;2990;48.746;9.236;2022-07-05T11:34:38;27.60;1.00
5930;DHT22;2990;48.746;9.236;2022-07-05T11:37:19;27.60;1.00
5930;DHT22;2990;48.746;9.236;2022-07-05T11:42:32;28.10;1.00
5930;DHT22;2990;48.746;9.236;2022-07-05T11:45:00;28.40;1.00
5930;DHT22;2990;48.746;9.236;2022-07-05T11:47:26;28.30;1.00
5930;DHT22;2990;48.746;9.236;2022-07-05T11:49:58;28.20;1.00
5930;DHT22;2990;48.746;9.236;2022-07-05T11:52:32;28.30;1.00
5930;DHT22;2990;48.746;9.236;2022-07-05T11:55:00;28.20;1.00
5930;DHT22;2990;48.746;9.236;2022-07-05T11:57:26;28.10;1.00
5930;DHT22;2990;48.746;9.236;2022-07-05T11:59:52;28.30;1.00
5930;DHT22;2990;48.746;9.236;2022-07-05T12:02:18;28.50;1.00
5930;DHT22;2990;48.746;9.236;2022-07-05T12:04:54;28.40;1.00
5930;DHT22;2990;48.746;9.236;2022-07-05T12:07:31;28.30;1.00
5930;DHT22;2990;48.746;9.236;2022-07-05T12:09:58;27.80;1.00
5930;DHT22;2990;48.746;9.236;2022-07-05T12:12:42;27.20;1.00
5930;DHT22;2990;48.746;9.236;2022-07-05T12:15:15;27.40;1.00
5930;DHT22;2990;48.746;9.236;2022-07-05T12:17:46;27.70;1.00
5930;DHT22;2990;48.746;9.236;2022-07-05T12:20:14;27.90;1.00
5930;DHT22;2990;48.746;9.236;2022-07-05T12:22:42;28.20;1.00
5930;DHT22;2990;48.746;9.236;2022-07-05T12:25:11;28.20;1.00
5930;DHT22;2990;48.746;9.236;2022-07-05T12:27:39;28.50;1.00
5930;DHT22;2990;48.746;9.236;2022-07-05T12:30:06;28.70;1.00
5930;DHT22;2990;48.746;9.236;2022-07-05T12:37:56;29.20;1.00
5930;DHT22;2990;48.746;9.236;2022-07-05T12:40:23;29.30;1.00
5930;DHT22;2990;48.746;9.236;2022-07-05T12:43:03;29.30;1.00
5930;DHT22;2990;48.746;9.236;2022-07-05T12:45:29;29.10;1.00
5930;DHT22;2990;48.746;9.236;2022-07-05T12:47:56;29.00;1.00
5930;DHT22;2990;48.746;9.236;2022-07-05T12:50:24;28.80;1.00
5930;DHT22;2990;48.746;9.236;2022-07-05T12:53:04;28.40;1.00
5930;DHT22;2990;48.746;9.236;2022-07-05T12:55:49;27.80;1.00
5930;DHT22;2990;48.746;9.236;2022-07-05T12:58:48;27.90;1.00
5930;DHT22;2990;48.746;9.236;2022-07-05T13:01:21;27.90;1.00
5930;DHT22;2990;48.746;9.236;2022-07-05T13:04:03;27.80;1.00
5930;DHT22;2990;48.746;9.236;2022-07-05T13:14:42;27.80;1.00
5930;DHT22;2990;48.746;9.236;2022-07-05T13:17:08;28.00;1.00
5930;DHT22;2990;48.746;9.236;2022-07-05T13:19:35;28.30;1.00
5930;DHT22;2990;48.746;9.236;2022-07-05T13:22:01;28.60;1.00
5930;DHT22;2990;48.746;9.236;2022-07-05T13:24:27;28.50;1.00
5930;DHT22;2990;48.746;9.236;2022-07-05T13:26:53;28.50;1.00
5930;DHT22;2990;48.746;9.236;2022-07-05T13:29:19;28.40;1.00
5930;DHT22;2990;48.746;9.236;2022-07-05T13:31:45;28.30;1.00
5930;DHT22;2990;48.746;9.236;2022-07-05T13:34:10;28.40;1.00
5930;DHT22;2990;48.746;9.236;2022-07-05T13:36:36;28.20;1.00
5930;DHT22;2990;48.746;9.236;2022-07-05T13:39:01;27.90;1.00
5930;DHT22;2990;48.746;9.236;2022-07-05T13:41:27;27.60;1.00
5930;DHT22;2990;48.746;9.236;2022-07-05T13:43:52;27.30;1.00
5930;DHT22;2990;48.746;9.236;2022-07-05T13:46:18;26.90;1.00
5930;DHT22;2990;48.746;9.236;2022-07-05T13:48:44;26.80;1.00
5930;DHT22;2990;48.746;9.236;2022-07-05T13:51:09;26.60;1.00
5930;DHT22;2990;48.746;9.236;2022-07-05T13:53:35;26.40;1.00
5930;DHT22;2990;48.746;9.236;2022-07-05T13:56:05;26.10;1.00
5930;DHT22;2990;48.746;9.236;2022-07-05T13:58:31;26.30;1.00
5930;DHT22;2990;48.746;9.236;2022-07-05T14:00:57;26.70;1.00
5930;DHT22;2990;48.746;9.236;2022-07-05T14:03:22;27.10;1.00
5930;DHT22;2990;48.746;9.236;2022-07-05T14:05:48;27.60;1.00
5930;DHT22;2990;48.746;9.236;2022-07-05T14:08:14;27.90;1.00
5930;DHT22;2990;48.746;9.236;2022-07-05T14:10:40;28.20;1.00
5930;DHT22;2990;48.746;9.236;2022-07-05T14:13:06;28.00;1.00
5930;DHT22;2990;48.746;9.236;2022-07-05T14:15:32;27.90;1.00
5930;DHT22;2990;48.746;9.236;2022-07-05T14:17:58;27.60;1.00
5930;DHT22;2990;48.746;9.236;2022-07-05T14:20:25;27.10;1.00
5930;DHT22;2990;48.746;9.236;2022-07-05T14:22:51;26.80;1.00
5930;DHT22;2990;48.746;9.236;2022-07-05T14:25:16;26.60;1.00
5930;DHT22;2990;48.746;9.236;2022-07-05T14:27:42;26.70;1.00
5930;DHT22;2990;48.746;9.236;2022-07-05T14:30:08;26.70;1.00
5930;DHT22;2990;48.746;9.236;2022-07-05T14:32:36;26.70;1.00
5930;DHT22;2990;48.746;9.236;2022-07-05T14:35:02;26.70;1.00
5930;DHT22;2990;48.746;9.236;2022-07-05T14:37:27;26.80;1.00
5930;DHT22;2990;48.746;9.236;2022-07-05T14:39:53;26.80;1.00
5930;DHT22;2990;48.746;9.236;2022-07-05T14:42:18;26.80;1.00
5930;DHT22;2990;48.746;9.236;2022-07-05T14:44:44;27.10;1.00
5930;DHT22;2990;48.746;9.236;2022-07-05T14:47:09;27.20;1.00
5930;DHT22;2990;48.746;9.236;2022-07-05T14:49:35;27.20;1.00
5930;DHT22;2990;48.746;9.236;2022-07-05T14:52:01;27.20;1.00
5930;DHT22;2990;48.746;9.236;2022-07-05T14:54:27;27.10;1.00
5930;DHT22;2990;48.746;9.236;2022-07-05T14:56:52;27.00;1.00
5930;DHT22;2990;48.746;9.236;2022-07-05T14:59:18;27.00;1.00
5930;DHT22;2990;48.746;9.236;2022-07-05T15:01:44;27.20;1.00
5930;DHT22;2990;48.746;9.236;2022-07-05T15:04:13;27.20;1.00
5930;DHT22;2990;48.746;9.236;2022-07-05T15:06:38;27.40;1.00
5930;DHT22;2990;48.746;9.236;2022-07-05T15:09:06;27.50;1.00
5930;DHT22;2990;48.746;9.236;2022-07-05T15:11:32;27.60;1.00
5930;DHT22;2990;48.746;9.236;2022-07-05T15:13:57;27.70;1.00
5930;DHT22;2990;48.746;9.236;2022-07-05T15:16:25;27.60;1.00
5930;DHT22;2990;48.746;9.236;2022-07-05T15:18:51;27.70;1.00
5930;DHT22;2990;48.746;9.236;2022-07-05T15:21:18;27.80;1.00
5930;DHT22;2990;48.746;9.236;2022-07-05T15:23:44;27.70;1.00
5930;DHT22;2990;48.746;9.236;2022-07-05T15:26:09;27.50;1.00
5930;DHT22;2990;48.746;9.236;2022-07-05T15:28:35;27.60;1.00
5930;DHT22;2990;48.746;9.236;2022-07-05T15:31:00;27.50;1.00
5930;DHT22;2990;48.746;9.236;2022-07-05T15:33:26;27.60;1.00
5930;DHT22;2990;48.746;9.236;2022-07-05T15:35:58;27.50;1.00
5930;DHT22;2990;48.746;9.236;2022-07-05T15:38:24;28.30;1.00
5930;DHT22;2990;48.746;9.236;2022-07-05T15:40:50;29.60;1.00
5930;DHT22;2990;48.746;9.236;2022-07-05T15:43:16;30.10;1.00
5930;DHT22;2990;48.746;9.236;2022-07-05T15:45:43;29.70;1.00
5930;DHT22;2990;48.746;9.236;2022-07-05T15:48:09;29.40;1.00
5930;DHT22;2990;48.746;9.236;2022-07-05T15:50:34;29.10;1.00
5930;DHT22;2990;48.746;9.236;2022-07-05T15:53:00;28.80;1.00
5930;DHT22;2990;48.746;9.236;2022-07-05T15:55:25;28.50;1.00
5930;DHT22;2990;48.746;9.236;2022-07-05T15:57:51;28.40;1.00
5930;DHT22;2990;48.746;9.236;2022-07-05T16:00:16;28.50;1.00
5930;DHT22;2990;48.746;9.236;2022-07-05T16:02:43;28.70;1.00
5930;DHT22;2990;48.746;9.236;2022-07-05T16:05:10;28.60;1.00
5930;DHT22;2990;48.746;9.236;2022-07-05T16:07:36;28.20;1.00
5930;DHT22;2990;48.746;9.236;2022-07-05T16:10:01;27.80;1.00
5930;DHT22;2990;48.746;9.236;2022-07-05T16:12:27;27.60;1.00
5930;DHT22;2990;48.746;9.236;2022-07-05T16:14:54;27.30;1.00
5930;DHT22;2990;48.746;9.236;2022-07-05T16:17:19;27.20;1.00
5930;DHT22;2990;48.746;9.236;2022-07-05T16:19:45;27.10;1.00
5930;DHT22;2990;48.746;9.236;2022-07-05T16:22:10;26.90;1.00
5930;DHT22;2990;48.746;9.236;2022-07-05T16:24:36;27.00;1.00
5930;DHT22;2990;48.746;9.236;2022-07-05T16:27:01;27.10;1.00
5930;DHT22;2990;48.746;9.236;2022-07-05T16:29:27;26.80;1.00
5930;DHT22;2990;48.746;9.236;2022-07-05T16:31:53;26.60;1.00
5930;DHT22;2990;48.746;9.236;2022-07-05T16:34:20;26.20;1.00
5930;DHT22;2990;48.746;9.236;2022-07-05T16:36:46;26.00;1.00
5930;DHT22;2990;48.746;9.236;2022-07-05T16:39:11;25.90;1.00
5930;DHT22;2990;48.746;9.236;2022-07-05T16:41:38;25.70;1.00
5930;DHT22;2990;48.746;9.236;2022-07-05T16:44:04;25.70;1.00
5930;DHT22;2990;48.746;9.236;2022-07-05T16:46:29;25.70;1.00
5930;DHT22;2990;48.746;9.236;2022-07-05T16:48:55;25.80;1.00
5930;DHT22;2990;48.746;9.236;2022-07-05T16:51:21;25.60;1.00
5930;DHT22;2990;48.746;9.236;2022-07-05T16:53:49;25.60;1.00
5930;DHT22;2990;48.746;9.236;2022-07-05T16:56:15;25.60;1.00
5930;DHT22;2990;48.746;9.236;2022-07-05T16:58:44;25.50;1.00
5930;DHT22;2990;48.746;9.236;2022-07-05T17:01:11;25.50;1.00
5930;DHT22;2990;48.746;9.236;2022-07-05T17:03:39;25.40;1.00
5930;DHT22;2990;48.746;9.236;2022-07-05T17:06:05;25.40;1.00
5930;DHT22;2990;48.746;9.236;2022-07-05T17:08:32;25.40;1.00
5930;DHT22;2990;48.746;9.236;2022-07-05T17:11:01;25.30;1.00
5930;DHT22;2990;48.746;9.236;2022-07-05T17:13:27;25.20;1.00
5930;DHT22;2990;48.746;9.236;2022-07-05T17:15:52;25.10;1.00
5930;DHT22;2990;48.746;9.236;2022-07-05T17:18:18;25.10;1.00
5930;DHT22;2990;48.746;9.236;2022-07-05T17:20:44;25.10;1.00